AGROMETEOROLOŠKI PORTAL

vinorodna pokrajina

Temelj dobrega kmetovanja

Pregled podatkov za lokacijo LENDAVA - TERME ARSO, meteorološka postaja 151

Pregled senzorjev na lokaciji

ID Ime Zadnja
vrednost
Datum in čas
meritve
(lokalni čas)
Tip
senzorja
6032 Zračni tlak (hPa) 1001 hPa 28.1.2023 07:30 ARSO
4844 Sončno sevanje (W/m2) 0 W/m2 28.1.2023 07:30 ARSO
4853 Relativna zračna vlaga (2 m) (% RH) 68 % RH 28.1.2023 07:30 ARSO
4852 Temperatura (2 m) (°C) 0,1 °C 28.1.2023 07:30 ARSO
4856 Smer vetra (2 m) (°) 18 ° 28.1.2023 07:30 ARSO
4857 Hitrost vetra (2 m) (km/h) 10 km/h 28.1.2023 07:30 ARSO

Pregled podatkov zadnjih 24 ur

Zap.
št.
Datum in čas
(lokalni čas)
LENDAVA - TERME ARSO
Zračni
tlak
Sončno
sevanje
Relativna
zračna
vlaga
(2
m)
Temperatura
(2
m)
Smer
vetra
(2
m)
Hitrost
vetra
(2
m)
1 28.1.2023 07:30 1000,7 0 68 0,1 18 10
2 28.1.2023 07:00 1000,5 0 68 0 12 8
3 28.1.2023 06:30 1000,3 0 69 0 17 9
4 28.1.2023 06:00 1000,1 0 70 -0,1 18 11
5 28.1.2023 05:30 999,8 0 71 -0,1 19 12
6 28.1.2023 05:00 999,7 0 72 0 21 11
7 28.1.2023 04:30 999,7 0 73 -0,1 17 10
8 28.1.2023 04:00 999,7 0 74 -0,1 17 9
9 28.1.2023 03:30 999,8 0 74 -0,1 21 8
10 28.1.2023 03:00 999,8 0 74 -0,1 16 8
11 28.1.2023 02:30 999,8 0 74 -0,2 13 6
12 28.1.2023 02:00 999,6 0 76 -0,3 15 6
13 28.1.2023 01:30 999,5 0 77 -0,5 14 7
14 28.1.2023 01:00 999,4 0 80 -0,9 13 6
15 28.1.2023 00:30 999,5 0 82 -1,4 351 3
16 28.1.2023 00:00 999,5 0 81 -1,3 327 3
17 27.1.2023 23:30 999,5 0 80 -1,2 329 3
18 27.1.2023 23:00 999,3 0 79 -1,2 353 5
19 27.1.2023 22:30 999,3 0 78 -1 360 4
20 27.1.2023 22:00 999,3 0 77 -0,8 8 6
21 27.1.2023 21:30 999,2 0 76 -0,4 16 8
22 27.1.2023 21:00 999,1 0 76 -0,2 12 6
23 27.1.2023 20:30 999 0 76 -0,1 2 6
24 27.1.2023 20:00 999 0 76 0 5 6
25 27.1.2023 19:30 998,8 0 77 -0,1 8 6
26 27.1.2023 19:00 998,6 0 78 -0,1 1 6
27 27.1.2023 18:30 998,4 0 78 -0,2 2 5
28 27.1.2023 18:00 998,2 0 80 -0,1 1 6
29 27.1.2023 17:30 997,9 0 80 0,1 11 8
30 27.1.2023 17:00 997,7 2 78 0,2 8 8
31 27.1.2023 16:30 997,5 10 79 0,3 14 6
32 27.1.2023 16:00 997,4 34 78 0,3 20 9
33 27.1.2023 15:30 997,3 38 80 0,3 16 10
34 27.1.2023 15:00 997,2 60 79 0,4 16 10
35 27.1.2023 14:30 997,1 98 72 1 14 12
36 27.1.2023 14:00 997,1 142 66 1,6 20 11
37 27.1.2023 13:30 997,3 193 69 1,5 12 8
38 27.1.2023 13:00 997,7 182 73 0,9 18 11
39 27.1.2023 12:30 997,9 170 70 1,1 14 12
40 27.1.2023 12:00 998 145 68 1,2 22 11
41 27.1.2023 11:30 998 122 69 1,3 26 11
42 27.1.2023 11:00 998,1 128 72 1,1 23 10
43 27.1.2023 10:30 998 115 76 0,8 19 8
44 27.1.2023 10:00 998 86 79 0,5 18 5
45 27.1.2023 09:30 998 59 82 0,3 347 3
46 27.1.2023 09:00 997,9 40 82 0,1 3 4
47 27.1.2023 08:30 997,8 27 82 0 6 3
48 27.1.2023 08:00 997,6 7 82 0 7 3